createdAt,value
2023-04-15T00:00:37.360Z,100339.63
2023-04-15T00:03:06.377Z,100342.53
2023-04-15T00:05:34.343Z,100338.34
2023-04-15T00:08:02.868Z,100338.53
2023-04-15T00:10:32.146Z,100334.06
2023-04-15T00:13:00.051Z,100337.25
2023-04-15T00:15:28.212Z,100337.41
2023-04-15T00:17:56.063Z,100341.31
2023-04-15T00:20:24.082Z,100333.25
2023-04-15T00:22:52.308Z,100342.63
2023-04-15T00:25:20.120Z,100338.31
2023-04-15T00:27:49.615Z,100333.84
2023-04-15T00:30:17.339Z,100328.81
2023-04-15T00:32:45.180Z,100331.88
2023-04-15T00:35:15.404Z,100329.28
2023-04-15T00:37:44.850Z,100334.03
2023-04-15T00:40:14.857Z,100341.53
2023-04-15T00:42:42.643Z,100329.91
2023-04-15T00:45:12.912Z,100334.50
2023-04-15T00:47:43.279Z,100334.66
2023-04-15T00:50:11.550Z,100333.22
2023-04-15T00:52:39.840Z,100338.88
2023-04-15T00:55:09.219Z,100337.13
2023-04-15T00:57:37.467Z,100336.41
2023-04-15T01:00:08.016Z,100335.69
2023-04-15T01:02:37.628Z,100331.22
2023-04-15T01:05:06.331Z,100341.63
2023-04-15T01:07:34.198Z,100330.81
2023-04-15T01:10:04.356Z,100344.66
2023-04-15T01:12:34.266Z,100338.47
2023-04-15T01:15:02.865Z,100331.44
2023-04-15T01:17:31.174Z,100331.72
2023-04-15T01:20:01.101Z,100334.59
2023-04-15T01:22:31.506Z,100329.44
2023-04-15T01:25:08.165Z,100329.44
2023-04-15T01:27:40.932Z,100333.34
2023-04-15T01:30:10.630Z,100331.19
2023-04-15T01:32:39.153Z,100331.19
2023-04-15T01:35:07.762Z,100335.09
2023-04-15T01:37:35.910Z,100333.50
2023-04-15T01:40:03.827Z,100336.56
2023-04-15T01:42:32.946Z,100335.50
2023-04-15T01:45:02.110Z,100337.56
2023-04-15T01:47:30.104Z,100331.34
2023-04-15T01:49:57.964Z,100324.28
2023-04-15T01:52:26.126Z,100328.03
2023-04-15T01:54:53.941Z,100321.88
2023-04-15T01:57:21.977Z,100323.75
2023-04-15T01:59:49.807Z,100326.72
2023-04-15T02:02:19.007Z,100329.47
2023-04-15T02:04:46.844Z,100324.44
2023-04-15T02:07:14.595Z,100330.19
2023-04-15T02:09:43.470Z,100338.56
2023-04-15T02:12:11.345Z,100336.97
2023-04-15T02:14:39.249Z,100332.66
2023-04-15T02:17:08.492Z,100336.53
2023-04-15T02:19:39.393Z,100344.75
2023-04-15T02:22:09.248Z,100347.94
2023-04-15T02:24:37.114Z,100347.22
2023-04-15T02:27:05.037Z,100347.50
2023-04-15T02:29:33.309Z,100351.22
2023-04-15T02:32:02.164Z,100347.06
2023-04-15T02:34:30.482Z,100349.94
2023-04-15T02:37:00.101Z,100349.94
2023-04-15T02:39:28.782Z,100352.97
2023-04-15T02:41:56.873Z,100357.72
2023-04-15T02:44:25.043Z,100348.81
2023-04-15T02:46:58.317Z,100353.69
2023-04-15T02:49:26.549Z,100357.28
2023-04-15T02:51:55.404Z,100363.91
2023-04-15T02:54:25.891Z,100356.59
2023-04-15T02:56:55.331Z,100362.31
2023-04-15T02:59:23.798Z,100365.19
2023-04-15T03:01:51.648Z,100369.06
2023-04-15T03:04:19.650Z,100372.84
2023-04-15T03:06:47.568Z,100372.09
2023-04-15T03:09:15.697Z,100370.50
2023-04-15T03:11:46.002Z,100372.38
2023-04-15T03:14:13.823Z,100380.84
2023-04-15T03:16:45.307Z,100371.09
2023-04-15T03:19:15.581Z,100370.22
2023-04-15T03:21:44.544Z,100364.91
2023-04-15T03:24:12.489Z,100371.38
2023-04-15T03:26:40.439Z,100368.75
2023-04-15T03:29:15.177Z,100368.75
2023-04-15T03:31:43.268Z,100370.78
2023-04-15T03:34:12.020Z,100367.34
2023-04-15T03:36:39.809Z,100367.47
2023-04-15T03:39:08.041Z,100367.59
2023-04-15T03:41:36.103Z,100374.94
2023-04-15T03:44:03.907Z,100376.97
2023-04-15T03:46:33.260Z,100382.44
2023-04-15T03:49:01.292Z,100392.78
2023-04-15T03:51:29.318Z,100391.91
2023-04-15T03:54:00.226Z,100392.78
2023-04-15T03:56:28.154Z,100394.03
2023-04-15T03:58:56.144Z,100392.34
2023-04-15T04:01:24.029Z,100404.41
2023-04-15T04:03:53.339Z,100399.81
2023-04-15T04:06:21.541Z,100405.66
2023-04-15T04:08:49.297Z,100413.16
2023-04-15T04:11:17.277Z,100408.69
2023-04-15T04:13:45.154Z,100407.84
2023-04-15T04:16:13.131Z,100405.38
2023-04-15T04:18:40.956Z,100415.44
2023-04-15T04:21:10.228Z,100419.16
2023-04-15T04:23:38.147Z,100417.59
2023-04-15T04:26:06.159Z,100409.53
2023-04-15T04:28:35.397Z,100419.59
2023-04-15T04:31:03.342Z,100418.72
2023-04-15T04:33:31.124Z,100421.59
2023-04-15T04:36:01.855Z,100423.44
2023-04-15T04:38:31.049Z,100421.59
2023-04-15T04:40:58.936Z,100431.78
2023-04-15T04:43:27.044Z,100430.06
2023-04-15T04:45:57.326Z,100431.78
2023-04-15T04:48:25.116Z,100431.06
2023-04-15T04:50:55.991Z,100441.13
2023-04-15T04:53:23.770Z,100442.13
2023-04-15T04:55:53.049Z,100439.25
2023-04-15T04:58:21.363Z,100440.34
2023-04-15T05:00:49.157Z,100442.22
2023-04-15T05:03:17.420Z,100447.69
2023-04-15T05:05:48.750Z,100445.09
2023-04-15T05:08:18.225Z,100447.81
2023-04-15T05:10:46.037Z,100464.19
2023-04-15T05:13:15.471Z,100456.88
2023-04-15T05:15:43.348Z,100462.47
2023-04-15T05:18:11.155Z,100455.28
2023-04-15T05:20:39.394Z,100454.44
2023-04-15T05:23:07.270Z,100459.03
2023-04-15T05:25:37.157Z,100466.06
2023-04-15T05:28:04.882Z,100462.75
2023-04-15T05:30:34.212Z,100467.94
2023-04-15T05:33:02.101Z,100470.81
2023-04-15T05:35:29.875Z,100470.81
2023-04-15T05:37:57.815Z,100480.72
2023-04-15T05:40:27.465Z,100483.31
2023-04-15T05:42:55.451Z,100479.59
2023-04-15T05:45:23.213Z,100488.56
2023-04-15T05:47:54.386Z,100489.13
2023-04-15T05:50:22.298Z,100486.56
2023-04-15T05:52:50.284Z,100488.88
2023-04-15T05:55:18.160Z,100490.59
2023-04-15T05:57:45.906Z,100490.34
2023-04-15T06:00:15.307Z,100499.13
2023-04-15T06:02:43.449Z,100499.84
2023-04-15T06:05:12.937Z,100505.63
2023-04-15T06:07:41.093Z,100510.81
2023-04-15T06:10:09.873Z,100513.13
2023-04-15T06:12:37.670Z,100519.91
2023-04-15T06:15:06.681Z,100521.25
2023-04-15T06:17:34.531Z,100524.56
2023-04-15T06:20:02.505Z,100529.75
2023-04-15T06:22:31.696Z,100530.06
2023-04-15T06:24:59.625Z,100540.00
2023-04-15T06:27:27.389Z,100545.19
2023-04-15T06:29:55.164Z,100545.06
2023-04-15T06:32:22.955Z,100547.50
2023-04-15T06:34:50.730Z,100555.56
2023-04-15T06:37:18.692Z,100551.84
2023-04-15T06:39:47.888Z,100557.00
2023-04-15T06:42:16.156Z,100556.88
2023-04-15T06:44:44.089Z,100566.81
2023-04-15T06:47:13.059Z,100554.63
2023-04-15T06:49:41.291Z,100564.25
2023-04-15T06:52:09.317Z,100563.13
2023-04-15T06:54:37.132Z,100567.03
2023-04-15T06:57:07.091Z,100565.44
2023-04-15T06:59:34.879Z,100568.50
2023-04-15T07:02:02.834Z,100574.13
2023-04-15T07:04:30.772Z,100571.56
2023-04-15T07:07:00.022Z,100582.41
2023-04-15T07:09:27.817Z,100578.09
2023-04-15T07:11:55.730Z,100578.84
2023-04-15T07:14:25.092Z,100579.84
2023-04-15T07:16:52.999Z,100583.59
2023-04-15T07:19:20.992Z,100586.47
2023-04-15T07:21:49.017Z,100595.25
2023-04-15T07:24:18.236Z,100600.19
2023-04-15T07:26:46.334Z,100596.13
2023-04-15T07:29:14.129Z,100594.97
2023-04-15T07:31:43.378Z,100610.09
2023-04-15T07:34:11.149Z,100607.50
2023-04-15T07:36:38.920Z,100617.31
2023-04-15T07:39:06.779Z,100613.41
2023-04-15T07:41:34.766Z,100618.03
2023-04-15T07:44:04.320Z,100621.50
2023-04-15T07:46:32.202Z,100623.66
2023-04-15T07:49:01.847Z,100627.84
2023-04-15T07:51:30.851Z,100628.13
2023-04-15T07:53:58.716Z,100633.47
2023-04-15T07:56:27.128Z,100641.69
2023-04-15T07:58:54.920Z,100642.28
2023-04-15T08:01:22.757Z,100634.91
2023-04-15T08:03:50.893Z,100644.44
2023-04-15T08:06:20.184Z,100642.97
2023-04-15T08:08:48.329Z,100654.09
2023-04-15T08:11:16.881Z,100659.84
2023-04-15T08:13:44.750Z,100659.72
2023-04-15T08:16:19.691Z,100660.88
2023-04-15T08:18:47.778Z,100673.84
2023-04-15T08:21:16.223Z,100663.31
2023-04-15T08:23:45.964Z,100666.50
2023-04-15T08:26:14.297Z,100672.53
2023-04-15T08:28:43.746Z,100674.72
2023-04-15T08:31:11.604Z,100669.78
2023-04-15T08:33:39.437Z,100679.59
2023-04-15T08:36:07.786Z,100680.34
2023-04-15T08:38:36.195Z,100684.50
2023-04-15T08:41:08.748Z,100680.50
2023-04-15T08:43:39.677Z,100692.72
2023-04-15T08:46:08.482Z,100684.94
2023-04-15T08:48:40.420Z,100695.31
2023-04-15T08:51:09.518Z,100690.72
2023-04-15T08:53:38.638Z,100691.03
2023-04-15T08:56:10.674Z,100693.47
2023-04-15T08:58:39.305Z,100699.09
2023-04-15T09:01:07.278Z,100690.75
2023-04-15T09:03:36.295Z,100700.38
2023-04-15T09:06:05.711Z,100702.44
2023-04-15T09:08:34.480Z,100687.84
2023-04-15T09:11:02.985Z,100695.06
2023-04-15T09:13:32.330Z,100698.38
2023-04-15T09:16:03.623Z,100704.59
2023-04-15T09:18:33.550Z,100710.63
2023-04-15T09:21:09.077Z,100711.63
2023-04-15T09:23:37.774Z,100713.22
2023-04-15T09:26:06.349Z,100710.75
2023-04-15T09:28:42.685Z,100720.84
2023-04-15T09:31:11.415Z,100716.94
2023-04-15T09:33:56.772Z,100723.28
2023-04-15T09:36:25.192Z,100721.09
2023-04-15T09:38:57.278Z,100719.19
2023-04-15T09:41:26.612Z,100722.81
2023-04-15T09:43:55.976Z,100727.53
2023-04-15T09:46:42.311Z,100735.16
2023-04-15T09:49:11.299Z,100730.97
2023-04-15T09:51:39.548Z,100741.22
2023-04-15T09:54:07.407Z,100730.50
2023-04-15T09:56:37.774Z,100739.00
2023-04-15T09:59:07.672Z,100741.28
2023-04-15T10:01:36.146Z,100740.56
2023-04-15T10:04:05.567Z,100743.53
2023-04-15T10:06:34.818Z,100746.53
2023-04-15T10:09:03.301Z,100747.81
2023-04-15T10:11:32.893Z,100744.13
2023-04-15T10:14:02.304Z,100762.31
2023-04-15T10:16:33.999Z,100759.50
2023-04-15T10:19:04.453Z,100763.50
2023-04-15T10:21:33.656Z,100766.34
2023-04-15T10:24:03.284Z,100760.06
2023-04-15T10:26:31.717Z,100765.81
2023-04-15T10:29:01.216Z,100763.78
2023-04-15T10:31:31.747Z,100766.63
2023-04-15T10:34:04.197Z,100763.88
2023-04-15T10:36:32.174Z,100778.34
2023-04-15T10:38:59.941Z,100774.00
2023-04-15T10:41:31.089Z,100778.00
2023-04-15T10:44:03.416Z,100775.44
2023-04-15T10:46:39.541Z,100785.34
2023-04-15T10:49:12.126Z,100789.63
2023-04-15T10:51:42.499Z,100781.88
2023-04-15T10:54:14.850Z,100782.03
2023-04-15T10:56:44.033Z,100778.56
2023-04-15T10:59:12.284Z,100788.84
2023-04-15T11:01:56.505Z,100780.44
2023-04-15T11:04:53.543Z,100796.41
2023-04-15T11:07:42.097Z,100794.66
2023-04-15T11:10:54.957Z,100791.06
2023-04-15T11:13:28.353Z,100796.41
2023-04-15T11:16:01.717Z,100807.25
2023-04-15T11:18:32.951Z,100801.75
2023-04-15T11:21:03.534Z,100810.00
2023-04-15T11:23:37.197Z,100812.75
2023-04-15T11:26:09.312Z,100811.88
2023-04-15T11:28:39.028Z,100810.31
2023-04-15T11:31:10.725Z,100812.03
2023-04-15T11:33:47.054Z,100828.38
2023-04-15T11:36:15.013Z,100818.56
2023-04-15T11:38:48.195Z,100821.00
2023-04-15T11:41:16.627Z,100824.91
2023-04-15T11:43:44.445Z,100826.66
2023-04-15T11:46:12.404Z,100830.09
2023-04-15T11:48:44.692Z,100838.03
2023-04-15T11:51:13.321Z,100833.72
2023-04-15T11:53:43.040Z,100830.66
2023-04-15T11:56:12.976Z,100833.25
2023-04-15T11:58:40.959Z,100841.66
2023-04-15T12:01:08.861Z,100845.28
2023-04-15T12:03:44.287Z,100846.00
2023-04-15T12:06:19.061Z,100850.63
2023-04-15T12:08:57.158Z,100859.16
2023-04-15T12:11:31.250Z,100858.63
2023-04-15T12:14:03.983Z,100861.53
2023-04-15T12:16:32.323Z,100868.34
2023-04-15T12:19:02.435Z,100880.94
2023-04-15T12:21:35.877Z,100876.88
2023-04-15T12:24:05.344Z,100877.31
2023-04-15T12:26:38.195Z,100881.97
2023-04-15T12:29:07.042Z,100885.16
2023-04-15T12:31:35.712Z,100884.94
2023-04-15T12:34:08.767Z,100898.50
2023-04-15T12:36:37.462Z,100895.19
2023-04-15T12:39:06.273Z,100911.69
2023-04-15T12:41:34.573Z,100905.63
2023-04-15T12:44:02.704Z,100911.44
2023-04-15T12:46:31.102Z,100913.47
2023-04-15T12:48:59.378Z,100915.50
2023-04-15T12:51:28.605Z,100909.13
2023-04-15T12:53:56.435Z,100914.06
2023-04-15T12:56:24.520Z,100922.47
2023-04-15T12:58:52.477Z,100931.84
2023-04-15T13:01:20.353Z,100934.75
2023-04-15T13:03:48.383Z,100938.69
2023-04-15T13:06:16.641Z,100937.97
2023-04-15T13:08:57.499Z,100947.94
2023-04-15T13:11:26.004Z,100952.13
2023-04-15T13:13:53.933Z,100943.19
2023-04-15T13:16:21.960Z,100953.44
2023-04-15T13:18:49.922Z,100968.34
2023-04-15T13:21:19.419Z,100965.75
2023-04-15T13:23:49.751Z,100972.28
2023-04-15T13:26:17.689Z,100974.56
2023-04-15T13:28:46.035Z,100974.56
2023-04-15T13:31:13.998Z,100976.59
2023-04-15T13:33:41.931Z,100978.66
2023-04-15T13:36:10.471Z,100980.66
2023-04-15T13:38:38.299Z,100977.19
2023-04-15T13:41:07.695Z,100983.56
2023-04-15T13:43:35.689Z,100980.22
2023-04-15T13:46:03.895Z,100987.63
2023-04-15T13:48:31.780Z,100990.50
2023-04-15T13:50:59.616Z,100998.00
2023-04-15T13:53:33.843Z,100988.91
2023-04-15T13:56:09.066Z,100996.28
2023-04-15T13:58:37.863Z,101004.66
2023-04-15T14:01:07.393Z,101011.16
2023-04-15T14:03:36.647Z,101007.84
2023-04-15T14:06:05.716Z,101012.47
2023-04-15T14:08:33.870Z,101016.22
2023-04-15T14:11:02.074Z,101015.34
2023-04-15T14:13:31.415Z,101018.09
2023-04-15T14:15:59.346Z,101025.47
2023-04-15T14:18:27.435Z,101025.59
2023-04-15T14:20:55.592Z,101031.97
2023-04-15T14:23:23.492Z,101029.22
2023-04-15T14:25:51.892Z,101032.97
2023-04-15T14:28:19.824Z,101035.72
2023-04-15T14:30:49.136Z,101035.59
2023-04-15T14:33:17.292Z,101042.25
2023-04-15T14:35:45.139Z,101037.72
2023-04-15T14:38:13.062Z,101042.25
2023-04-15T14:40:42.770Z,101043.09
2023-04-15T14:43:10.912Z,101045.97
2023-04-15T14:45:40.690Z,101049.63
2023-04-15T14:48:12.881Z,101053.88
2023-04-15T14:50:41.312Z,101043.50
2023-04-15T14:53:09.158Z,101045.97
2023-04-15T14:55:36.960Z,101056.81
2023-04-15T14:58:04.931Z,101061.47
2023-04-15T15:00:32.765Z,101065.91
2023-04-15T15:03:00.918Z,101072.44
2023-04-15T15:05:30.172Z,101072.28
2023-04-15T15:07:58.089Z,101073.28
2023-04-15T15:10:38.627Z,101071.41
2023-04-15T15:13:14.056Z,101078.78
2023-04-15T15:15:42.087Z,101085.31
2023-04-15T15:18:10.047Z,101084.41
2023-04-15T15:20:39.278Z,101097.16
2023-04-15T15:23:07.188Z,101096.41
2023-04-15T15:25:35.044Z,101102.91
2023-04-15T15:28:03.060Z,101103.91
2023-04-15T15:30:31.188Z,101106.03
2023-04-15T15:32:59.059Z,101106.03
2023-04-15T15:35:27.778Z,101108.78
2023-04-15T15:37:57.091Z,101115.47
2023-04-15T15:40:28.511Z,101123.69
2023-04-15T15:42:56.393Z,101125.84
2023-04-15T15:45:24.235Z,101122.53
2023-04-15T15:47:52.707Z,101123.53
2023-04-15T15:50:21.645Z,101126.41
2023-04-15T15:52:49.621Z,101135.91
2023-04-15T15:55:18.917Z,101137.94
2023-04-15T15:57:46.729Z,101134.59
2023-04-15T16:00:15.587Z,101139.22
2023-04-15T16:05:15.982Z,101144.13
2023-04-15T16:07:43.846Z,101148.75
2023-04-15T16:10:13.963Z,101149.75
2023-04-15T16:12:43.223Z,101148.88
2023-04-15T16:15:12.017Z,101160.88
2023-04-15T16:17:40.037Z,101164.75
2023-04-15T16:20:08.943Z,101168.34
2023-04-15T16:22:37.069Z,101164.88
2023-04-15T16:25:05.082Z,101166.03
2023-04-15T16:27:33.805Z,101168.91
2023-04-15T16:30:04.501Z,101177.16
2023-04-15T16:32:32.381Z,101177.41
2023-04-15T16:35:00.167Z,101183.03
2023-04-15T16:37:27.998Z,101178.72
2023-04-15T16:39:55.853Z,101181.44
2023-04-15T16:42:23.727Z,101189.81
2023-04-15T16:44:51.557Z,101192.69
2023-04-15T16:47:20.685Z,101190.06
2023-04-15T16:49:48.740Z,101191.25
2023-04-15T16:52:16.455Z,101193.38
2023-04-15T16:54:44.223Z,101199.84
2023-04-15T16:57:11.990Z,101197.41
2023-04-15T16:59:39.840Z,101197.66
2023-04-15T17:02:10.707Z,101195.91
2023-04-15T17:04:40.321Z,101206.16
2023-04-15T17:07:08.825Z,101212.78
2023-04-15T17:09:36.727Z,101201.06
2023-04-15T17:12:05.218Z,101203.81
2023-04-15T17:14:33.285Z,101201.47
2023-04-15T17:17:01.355Z,101209.69
2023-04-15T17:19:29.194Z,101211.56
2023-04-15T17:21:58.517Z,101217.91
2023-04-15T17:24:26.518Z,101225.44
2023-04-15T17:26:54.675Z,101219.06
2023-04-15T17:29:22.566Z,101222.81
2023-04-15T17:31:50.419Z,101232.91
2023-04-15T17:34:18.359Z,101232.03
2023-04-15T17:36:46.222Z,101234.03
2023-04-15T17:39:15.558Z,101238.53
2023-04-15T17:41:43.367Z,101234.44
2023-04-15T17:44:11.242Z,101243.56
2023-04-15T17:46:39.116Z,101246.41
2023-04-15T17:49:07.223Z,101256.50
2023-04-15T17:51:35.233Z,101267.59
2023-04-15T17:54:09.465Z,101255.03
2023-04-15T17:56:38.658Z,101270.47
2023-04-15T17:59:06.962Z,101270.75
2023-04-15T18:01:34.947Z,101265.38
2023-04-15T18:04:03.034Z,101272.84
2023-04-15T18:06:31.829Z,101278.44
2023-04-15T18:08:59.832Z,101282.34
2023-04-15T18:11:27.714Z,101284.22
2023-04-15T18:13:56.909Z,101286.97
2023-04-15T18:16:24.943Z,101288.06
2023-04-15T18:18:52.769Z,101300.91
2023-04-15T18:21:20.642Z,101303.78
2023-04-15T18:23:48.614Z,101311.25
2023-04-15T18:26:16.471Z,101313.28
2023-04-15T18:28:44.340Z,101312.53
2023-04-15T18:31:13.587Z,101313.41
2023-04-15T18:33:41.482Z,101318.41
2023-04-15T18:36:09.355Z,101326.88
2023-04-15T18:38:37.160Z,101333.34
2023-04-15T18:41:05.429Z,101339.94
2023-04-15T18:43:33.305Z,101334.75
2023-04-15T18:46:01.870Z,101346.81
2023-04-15T18:48:31.301Z,101349.44
2023-04-15T18:50:59.156Z,101345.19
2023-04-15T18:53:27.998Z,101359.75
2023-04-15T18:55:56.274Z,101348.09
2023-04-15T18:58:24.138Z,101359.28
2023-04-15T19:00:51.991Z,101351.06
2023-04-15T19:03:19.835Z,101369.38
2023-04-15T19:05:49.084Z,101366.63
2023-04-15T19:08:17.012Z,101369.50
2023-04-15T19:10:45.212Z,101379.56
2023-04-15T19:13:13.115Z,101381.56
2023-04-15T19:15:40.997Z,101379.84
2023-04-15T19:18:10.632Z,101388.06
2023-04-15T19:20:40.109Z,101387.19
2023-04-15T19:23:09.668Z,101386.31
2023-04-15T19:25:38.174Z,101388.19
2023-04-15T19:28:06.368Z,101397.38
2023-04-15T19:30:34.591Z,101402.88
2023-04-15T19:33:02.412Z,101403.88
2023-04-15T19:35:30.257Z,101401.25
2023-04-15T19:37:58.092Z,101410.34
2023-04-15T19:40:27.376Z,101412.94
2023-04-15T19:42:55.370Z,101412.31
2023-04-15T19:45:23.357Z,101417.94
2023-04-15T19:47:51.325Z,101420.69
2023-04-15T19:50:24.584Z,101417.94
2023-04-15T19:52:52.634Z,101419.06
2023-04-15T19:55:20.962Z,101421.78
2023-04-15T19:57:50.371Z,101431.75
2023-04-15T20:00:18.173Z,101428.16
2023-04-15T20:02:46.069Z,101431.88
2023-04-15T20:05:14.074Z,101427.28
2023-04-15T20:07:43.209Z,101443.72
2023-04-15T20:10:13.207Z,101440.09
2023-04-15T20:12:50.108Z,101444.81
2023-04-15T20:15:23.527Z,101439.34
2023-04-15T20:17:51.741Z,101442.34
2023-04-15T20:20:20.199Z,101446.06
2023-04-15T20:22:48.374Z,101444.44
2023-04-15T20:25:16.477Z,101444.56
2023-04-15T20:27:44.338Z,101438.31
2023-04-15T20:30:12.686Z,101452.16
2023-04-15T20:32:42.025Z,101449.53
2023-04-15T20:35:10.140Z,101448.91
2023-04-15T20:37:40.361Z,101459.97
2023-04-15T20:40:09.495Z,101455.63
2023-04-15T20:42:37.870Z,101450.38
2023-04-15T20:45:07.113Z,101453.88
2023-04-15T20:47:34.968Z,101452.25
2023-04-15T20:50:04.387Z,101465.81
2023-04-15T20:52:32.203Z,101454.13
2023-04-15T20:55:30.618Z,101448.53
2023-04-15T20:57:59.853Z,101456.09
2023-04-15T21:00:29.659Z,101452.25
2023-04-15T21:03:01.353Z,101466.69
2023-04-15T21:05:46.767Z,101459.34
2023-04-15T21:08:21.197Z,101468.56
2023-04-15T21:10:49.839Z,101460.56
2023-04-15T21:13:22.194Z,101467.69
2023-04-15T21:15:54.433Z,101461.72
2023-04-15T21:18:23.111Z,101465.44
2023-04-15T21:20:59.349Z,101466.06
2023-04-15T21:23:28.725Z,101469.06
2023-04-15T21:25:56.740Z,101471.91
2023-04-15T21:28:24.805Z,101479.25
2023-04-15T21:30:53.077Z,101481.22
2023-04-15T21:33:21.298Z,101482.97
2023-04-15T21:35:59.995Z,101487.56
2023-04-15T21:38:30.231Z,101494.91
2023-04-15T21:40:58.238Z,101495.03
2023-04-15T21:43:26.691Z,101491.28
2023-04-15T21:46:23.613Z,101491.41
2023-04-15T21:48:42.896Z,101499.78
2023-04-15T21:51:13.914Z,101507.84
2023-04-15T21:53:44.956Z,101512.31
2023-04-15T21:56:16.725Z,101518.78
2023-04-15T21:58:44.762Z,101517.06
2023-04-15T22:01:12.822Z,101517.06
2023-04-15T22:03:41.030Z,101519.81
2023-04-15T22:06:09.301Z,101525.28
2023-04-15T22:08:48.287Z,101517.06
2023-04-15T22:11:27.905Z,101518.94
2023-04-15T22:13:56.709Z,101521.00
2023-04-15T22:16:25.561Z,101534.47
2023-04-15T22:18:53.483Z,101533.59
2023-04-15T22:21:21.556Z,101529.00
2023-04-15T22:23:50.206Z,101524.41
2023-04-15T22:26:18.074Z,101529.00
2023-04-15T22:28:47.423Z,101536.22
2023-04-15T22:31:15.446Z,101527.25
2023-04-15T22:33:43.704Z,101534.59
2023-04-15T22:36:11.854Z,101530.97
2023-04-15T22:38:40.117Z,101531.84
2023-04-15T22:41:10.153Z,101537.31
2023-04-15T22:43:38.094Z,101544.78
2023-04-15T22:46:07.359Z,101550.03
2023-04-15T22:48:35.610Z,101556.50
2023-04-15T22:51:04.753Z,101550.13
2023-04-15T22:53:32.965Z,101552.88
2023-04-15T22:56:00.825Z,101547.41
2023-04-15T22:58:28.711Z,101560.22
2023-04-15T23:00:56.477Z,101558.34
2023-04-15T23:03:26.009Z,101558.25
2023-04-15T23:05:54.212Z,101553.88
2023-04-15T23:08:23.885Z,101552.88
2023-04-15T23:10:51.790Z,101560.22
2023-04-15T23:13:19.713Z,101567.56
2023-04-15T23:15:47.690Z,101574.88
2023-04-15T23:18:15.572Z,101567.66
2023-04-15T23:20:44.722Z,101568.53
2023-04-15T23:23:12.657Z,101566.91
2023-04-15T23:25:40.981Z,101567.91
2023-04-15T23:28:08.988Z,101565.19
2023-04-15T23:30:36.850Z,101558.84
2023-04-15T23:33:05.696Z,101566.16
2023-04-15T23:35:33.714Z,101572.63
2023-04-15T23:38:03.027Z,101582.59
2023-04-15T23:40:31.070Z,101580.91
2023-04-15T23:42:58.985Z,101570.06
2023-04-15T23:45:26.891Z,101577.41
2023-04-15T23:47:54.763Z,101578.41
2023-04-15T23:50:22.649Z,101581.13
2023-04-15T23:52:50.434Z,101576.66
2023-04-15T23:55:19.635Z,101578.41
2023-04-15T23:57:48.100Z,101583.00
